sensor_id;sensor_type;location;lat;lon;timestamp;P1;durP1;ratioP1;P2;durP2;ratioP2
68951;SDS011;56000;51.146;17.112;2023-07-13T00:00:38;7.00;;;3.70;;
68951;SDS011;56000;51.146;17.112;2023-07-13T00:03:31;5.60;;;3.90;;
68951;SDS011;56000;51.146;17.112;2023-07-13T00:06:05;7.30;;;4.00;;
68951;SDS011;56000;51.146;17.112;2023-07-13T00:08:39;13.00;;;4.40;;
68951;SDS011;56000;51.146;17.112;2023-07-13T00:11:12;8.40;;;4.80;;
68951;SDS011;56000;51.146;17.112;2023-07-13T00:13:46;7.20;;;4.00;;
68951;SDS011;56000;51.146;17.112;2023-07-13T00:16:19;8.30;;;4.10;;
68951;SDS011;56000;51.146;17.112;2023-07-13T00:18:52;8.80;;;4.30;;
68951;SDS011;56000;51.146;17.112;2023-07-13T00:21:26;12.90;;;5.00;;
68951;SDS011;56000;51.146;17.112;2023-07-13T00:23:59;8.80;;;5.00;;
68951;SDS011;56000;51.146;17.112;2023-07-13T00:26:32;11.30;;;4.80;;
68951;SDS011;56000;51.146;17.112;2023-07-13T00:29:06;7.70;;;4.00;;
68951;SDS011;56000;51.146;17.112;2023-07-13T00:31:39;7.80;;;4.70;;
68951;SDS011;56000;51.146;17.112;2023-07-13T00:34:14;5.40;;;4.00;;
68951;SDS011;56000;51.146;17.112;2023-07-13T00:36:47;10.10;;;4.70;;
68951;SDS011;56000;51.146;17.112;2023-07-13T00:39:20;10.60;;;4.80;;
68951;SDS011;56000;51.146;17.112;2023-07-13T00:41:53;5.60;;;4.30;;
68951;SDS011;56000;51.146;17.112;2023-07-13T00:44:27;8.40;;;4.60;;
68951;SDS011;56000;51.146;17.112;2023-07-13T00:47:00;8.50;;;4.70;;
68951;SDS011;56000;51.146;17.112;2023-07-13T00:49:34;8.60;;;4.90;;
68951;SDS011;56000;51.146;17.112;2023-07-13T00:52:09;12.40;;;4.70;;
68951;SDS011;56000;51.146;17.112;2023-07-13T00:54:43;9.30;;;4.70;;
68951;SDS011;56000;51.146;17.112;2023-07-13T00:57:19;8.10;;;3.80;;
68951;SDS011;56000;51.146;17.112;2023-07-13T00:59:54;6.20;;;4.00;;
68951;SDS011;56000;51.146;17.112;2023-07-13T01:02:37;9.20;;;4.90;;
68951;SDS011;56000;51.146;17.112;2023-07-13T01:05:14;8.20;;;4.60;;
68951;SDS011;56000;51.146;17.112;2023-07-13T01:07:50;6.30;;;4.00;;
68951;SDS011;56000;51.146;17.112;2023-07-13T01:10:25;9.50;;;4.50;;
68951;SDS011;56000;51.146;17.112;2023-07-13T01:12:59;10.20;;;4.40;;
68951;SDS011;56000;51.146;17.112;2023-07-13T01:15:38;9.10;;;4.10;;
68951;SDS011;56000;51.146;17.112;2023-07-13T01:18:16;8.90;;;4.10;;
68951;SDS011;56000;51.146;17.112;2023-07-13T01:20:54;10.40;;;4.80;;
68951;SDS011;56000;51.146;17.112;2023-07-13T01:23:29;7.50;;;4.80;;
68951;SDS011;56000;51.146;17.112;2023-07-13T01:26:03;9.60;;;5.20;;
68951;SDS011;56000;51.146;17.112;2023-07-13T01:28:36;12.50;;;5.20;;
68951;SDS011;56000;51.146;17.112;2023-07-13T01:31:10;8.30;;;4.90;;
68951;SDS011;56000;51.146;17.112;2023-07-13T01:33:44;7.70;;;4.60;;
68951;SDS011;56000;51.146;17.112;2023-07-13T01:36:17;8.90;;;5.40;;
68951;SDS011;56000;51.146;17.112;2023-07-13T01:38:51;9.00;;;5.40;;
68951;SDS011;56000;51.146;17.112;2023-07-13T01:41:24;10.80;;;5.40;;
68951;SDS011;56000;51.146;17.112;2023-07-13T01:43:58;9.60;;;5.00;;
68951;SDS011;56000;51.146;17.112;2023-07-13T01:46:31;6.20;;;4.50;;
68951;SDS011;56000;51.146;17.112;2023-07-13T01:49:04;8.80;;;5.30;;
68951;SDS011;56000;51.146;17.112;2023-07-13T01:51:37;11.60;;;5.10;;
68951;SDS011;56000;51.146;17.112;2023-07-13T01:54:10;7.20;;;4.90;;
68951;SDS011;56000;51.146;17.112;2023-07-13T01:56:45;6.70;;;4.30;;
68951;SDS011;56000;51.146;17.112;2023-07-13T01:59:19;6.40;;;4.70;;
68951;SDS011;56000;51.146;17.112;2023-07-13T02:01:52;10.70;;;5.20;;
68951;SDS011;56000;51.146;17.112;2023-07-13T02:04:25;8.90;;;5.20;;
68951;SDS011;56000;51.146;17.112;2023-07-13T02:06:58;9.60;;;6.10;;
68951;SDS011;56000;51.146;17.112;2023-07-13T02:09:32;10.30;;;5.90;;
68951;SDS011;56000;51.146;17.112;2023-07-13T02:12:06;10.20;;;5.20;;
68951;SDS011;56000;51.146;17.112;2023-07-13T02:14:40;8.90;;;5.10;;
68951;SDS011;56000;51.146;17.112;2023-07-13T02:17:15;9.10;;;5.50;;
68951;SDS011;56000;51.146;17.112;2023-07-13T02:19:48;12.40;;;5.10;;
68951;SDS011;56000;51.146;17.112;2023-07-13T02:22:22;12.50;;;6.10;;
68951;SDS011;56000;51.146;17.112;2023-07-13T02:24:55;8.50;;;5.80;;
68951;SDS011;56000;51.146;17.112;2023-07-13T02:27:29;10.30;;;5.30;;
68951;SDS011;56000;51.146;17.112;2023-07-13T02:30:02;13.60;;;6.00;;
68951;SDS011;56000;51.146;17.112;2023-07-13T02:32:36;9.00;;;5.40;;
68951;SDS011;56000;51.146;17.112;2023-07-13T02:35:10;13.60;;;5.60;;
68951;SDS011;56000;51.146;17.112;2023-07-13T02:37:43;12.80;;;5.60;;
68951;SDS011;56000;51.146;17.112;2023-07-13T02:40:17;9.80;;;6.30;;
68951;SDS011;56000;51.146;17.112;2023-07-13T02:42:50;9.30;;;5.90;;
68951;SDS011;56000;51.146;17.112;2023-07-13T02:45:24;11.70;;;6.50;;
68951;SDS011;56000;51.146;17.112;2023-07-13T02:47:57;13.70;;;6.30;;
68951;SDS011;56000;51.146;17.112;2023-07-13T02:50:30;10.80;;;5.60;;
68951;SDS011;56000;51.146;17.112;2023-07-13T02:53:04;11.70;;;6.10;;
68951;SDS011;56000;51.146;17.112;2023-07-13T02:55:37;8.50;;;6.20;;
68951;SDS011;56000;51.146;17.112;2023-07-13T02:58:10;13.80;;;6.20;;
68951;SDS011;56000;51.146;17.112;2023-07-13T03:00:47;11.40;;;6.30;;
68951;SDS011;56000;51.146;17.112;2023-07-13T03:03:21;11.00;;;5.90;;
68951;SDS011;56000;51.146;17.112;2023-07-13T03:06:01;10.70;;;6.00;;
68951;SDS011;56000;51.146;17.112;2023-07-13T03:08:46;12.70;;;6.40;;
68951;SDS011;56000;51.146;17.112;2023-07-13T03:11:21;13.30;;;6.90;;
68951;SDS011;56000;51.146;17.112;2023-07-13T03:13:59;14.10;;;7.00;;
68951;SDS011;56000;51.146;17.112;2023-07-13T03:16:35;7.00;;;5.50;;
68951;SDS011;56000;51.146;17.112;2023-07-13T03:19:08;7.70;;;5.30;;
68951;SDS011;56000;51.146;17.112;2023-07-13T03:21:41;13.40;;;6.30;;
68951;SDS011;56000;51.146;17.112;2023-07-13T03:24:14;12.20;;;6.30;;
68951;SDS011;56000;51.146;17.112;2023-07-13T03:26:48;9.20;;;6.00;;
68951;SDS011;56000;51.146;17.112;2023-07-13T03:29:21;7.60;;;5.30;;
68951;SDS011;56000;51.146;17.112;2023-07-13T03:31:55;13.30;;;6.80;;
68951;SDS011;56000;51.146;17.112;2023-07-13T03:34:28;9.80;;;6.70;;
68951;SDS011;56000;51.146;17.112;2023-07-13T03:37:01;12.20;;;6.10;;
68951;SDS011;56000;51.146;17.112;2023-07-13T03:39:35;12.30;;;6.50;;
68951;SDS011;56000;51.146;17.112;2023-07-13T03:42:09;11.60;;;6.30;;
68951;SDS011;56000;51.146;17.112;2023-07-13T03:44:42;7.70;;;5.60;;
68951;SDS011;56000;51.146;17.112;2023-07-13T03:49:54;8.10;;;5.90;;
68951;SDS011;56000;51.146;17.112;2023-07-13T03:52:27;9.90;;;5.10;;
68951;SDS011;56000;51.146;17.112;2023-07-13T03:55:01;12.40;;;5.20;;
68951;SDS011;56000;51.146;17.112;2023-07-13T03:57:36;9.70;;;5.70;;
68951;SDS011;56000;51.146;17.112;2023-07-13T04:00:12;11.30;;;5.10;;
68951;SDS011;56000;51.146;17.112;2023-07-13T04:02:46;8.10;;;5.10;;
68951;SDS011;56000;51.146;17.112;2023-07-13T04:05:19;11.30;;;5.60;;
68951;SDS011;56000;51.146;17.112;2023-07-13T04:07:53;16.60;;;5.30;;
68951;SDS011;56000;51.146;17.112;2023-07-13T04:10:26;11.90;;;4.80;;
68951;SDS011;56000;51.146;17.112;2023-07-13T04:12:59;9.90;;;5.30;;
68951;SDS011;56000;51.146;17.112;2023-07-13T04:15:33;9.50;;;5.30;;
68951;SDS011;56000;51.146;17.112;2023-07-13T04:18:06;15.70;;;6.50;;
68951;SDS011;56000;51.146;17.112;2023-07-13T04:20:39;10.40;;;6.10;;
68951;SDS011;56000;51.146;17.112;2023-07-13T04:23:12;11.50;;;6.40;;
68951;SDS011;56000;51.146;17.112;2023-07-13T04:25:46;8.90;;;5.90;;
68951;SDS011;56000;51.146;17.112;2023-07-13T04:28:23;8.20;;;5.70;;
68951;SDS011;56000;51.146;17.112;2023-07-13T04:30:57;15.30;;;5.70;;
68951;SDS011;56000;51.146;17.112;2023-07-13T04:33:30;12.10;;;5.80;;
68951;SDS011;56000;51.146;17.112;2023-07-13T04:36:04;11.20;;;4.80;;
68951;SDS011;56000;51.146;17.112;2023-07-13T04:38:40;10.90;;;4.20;;
68951;SDS011;56000;51.146;17.112;2023-07-13T04:41:14;9.20;;;4.50;;
68951;SDS011;56000;51.146;17.112;2023-07-13T04:43:47;8.40;;;3.50;;
68951;SDS011;56000;51.146;17.112;2023-07-13T04:46:21;5.60;;;3.20;;
68951;SDS011;56000;51.146;17.112;2023-07-13T04:48:54;5.90;;;3.20;;
68951;SDS011;56000;51.146;17.112;2023-07-13T04:51:28;12.70;;;4.20;;
68951;SDS011;56000;51.146;17.112;2023-07-13T04:54:01;6.90;;;3.30;;
68951;SDS011;56000;51.146;17.112;2023-07-13T04:56:37;11.50;;;3.70;;
68951;SDS011;56000;51.146;17.112;2023-07-13T04:59:11;6.30;;;3.50;;
68951;SDS011;56000;51.146;17.112;2023-07-13T05:01:44;4.60;;;2.90;;
68951;SDS011;56000;51.146;17.112;2023-07-13T05:04:17;5.90;;;3.30;;
68951;SDS011;56000;51.146;17.112;2023-07-13T05:06:51;5.50;;;3.60;;
68951;SDS011;56000;51.146;17.112;2023-07-13T05:09:24;5.80;;;3.50;;
68951;SDS011;56000;51.146;17.112;2023-07-13T05:11:57;7.10;;;3.80;;
68951;SDS011;56000;51.146;17.112;2023-07-13T05:14:30;5.90;;;3.50;;
68951;SDS011;56000;51.146;17.112;2023-07-13T05:17:04;8.40;;;4.00;;
68951;SDS011;56000;51.146;17.112;2023-07-13T05:19:37;7.30;;;3.50;;
68951;SDS011;56000;51.146;17.112;2023-07-13T05:22:11;6.00;;;4.20;;
68951;SDS011;56000;51.146;17.112;2023-07-13T05:24:44;5.10;;;3.50;;
68951;SDS011;56000;51.146;17.112;2023-07-13T05:27:17;8.40;;;3.50;;
68951;SDS011;56000;51.146;17.112;2023-07-13T05:29:50;5.80;;;3.60;;
68951;SDS011;56000;51.146;17.112;2023-07-13T05:32:24;5.10;;;3.70;;
68951;SDS011;56000;51.146;17.112;2023-07-13T05:34:57;8.20;;;3.80;;
68951;SDS011;56000;51.146;17.112;2023-07-13T05:37:30;6.80;;;3.60;;
68951;SDS011;56000;51.146;17.112;2023-07-13T05:40:04;4.50;;;2.70;;
68951;SDS011;56000;51.146;17.112;2023-07-13T05:42:38;5.80;;;2.80;;
68951;SDS011;56000;51.146;17.112;2023-07-13T05:45:12;4.00;;;2.80;;
68951;SDS011;56000;51.146;17.112;2023-07-13T05:47:45;10.20;;;2.80;;
68951;SDS011;56000;51.146;17.112;2023-07-13T05:50:18;4.00;;;2.70;;
68951;SDS011;56000;51.146;17.112;2023-07-13T05:52:51;8.90;;;3.50;;
68951;SDS011;56000;51.146;17.112;2023-07-13T05:55:24;7.00;;;3.40;;
68951;SDS011;56000;51.146;17.112;2023-07-13T05:57:58;5.30;;;2.90;;
68951;SDS011;56000;51.146;17.112;2023-07-13T06:00:32;3.50;;;2.60;;
68951;SDS011;56000;51.146;17.112;2023-07-13T06:03:06;7.20;;;3.20;;
68951;SDS011;56000;51.146;17.112;2023-07-13T06:05:39;4.10;;;2.70;;
68951;SDS011;56000;51.146;17.112;2023-07-13T06:08:13;3.80;;;2.60;;
68951;SDS011;56000;51.146;17.112;2023-07-13T06:10:46;3.50;;;2.90;;
68951;SDS011;56000;51.146;17.112;2023-07-13T06:13:19;4.80;;;2.90;;
68951;SDS011;56000;51.146;17.112;2023-07-13T06:15:52;3.80;;;3.00;;
68951;SDS011;56000;51.146;17.112;2023-07-13T06:18:25;4.10;;;2.70;;
68951;SDS011;56000;51.146;17.112;2023-07-13T06:20:59;4.20;;;2.60;;
68951;SDS011;56000;51.146;17.112;2023-07-13T06:23:32;3.40;;;2.70;;
68951;SDS011;56000;51.146;17.112;2023-07-13T06:26:06;4.00;;;2.50;;
68951;SDS011;56000;51.146;17.112;2023-07-13T06:28:39;7.10;;;3.00;;
68951;SDS011;56000;51.146;17.112;2023-07-13T06:31:13;11.80;;;3.50;;
68951;SDS011;56000;51.146;17.112;2023-07-13T06:33:47;4.30;;;2.90;;
68951;SDS011;56000;51.146;17.112;2023-07-13T06:36:20;4.80;;;2.60;;
68951;SDS011;56000;51.146;17.112;2023-07-13T06:38:53;4.70;;;2.60;;
68951;SDS011;56000;51.146;17.112;2023-07-13T06:41:26;4.60;;;2.60;;
68951;SDS011;56000;51.146;17.112;2023-07-13T06:44:00;5.70;;;2.60;;
68951;SDS011;56000;51.146;17.112;2023-07-13T06:46:33;5.70;;;2.80;;
68951;SDS011;56000;51.146;17.112;2023-07-13T06:49:07;5.20;;;2.70;;
68951;SDS011;56000;51.146;17.112;2023-07-13T06:51:41;3.70;;;2.50;;
68951;SDS011;56000;51.146;17.112;2023-07-13T06:54:14;3.70;;;2.60;;
68951;SDS011;56000;51.146;17.112;2023-07-13T06:56:47;4.70;;;2.70;;
68951;SDS011;56000;51.146;17.112;2023-07-13T06:59:21;6.20;;;2.90;;
68951;SDS011;56000;51.146;17.112;2023-07-13T07:01:54;5.50;;;3.10;;
68951;SDS011;56000;51.146;17.112;2023-07-13T07:04:28;4.80;;;3.10;;
68951;SDS011;56000;51.146;17.112;2023-07-13T07:07:01;9.70;;;3.80;;
68951;SDS011;56000;51.146;17.112;2023-07-13T07:09:34;5.70;;;3.80;;
68951;SDS011;56000;51.146;17.112;2023-07-13T07:12:09;5.10;;;4.00;;
68951;SDS011;56000;51.146;17.112;2023-07-13T07:14:44;8.20;;;4.10;;
68951;SDS011;56000;51.146;17.112;2023-07-13T07:17:17;9.40;;;5.20;;
68951;SDS011;56000;51.146;17.112;2023-07-13T07:19:53;6.60;;;4.10;;
68951;SDS011;56000;51.146;17.112;2023-07-13T07:22:26;10.00;;;4.00;;
68951;SDS011;56000;51.146;17.112;2023-07-13T07:25:00;11.00;;;3.90;;
68951;SDS011;56000;51.146;17.112;2023-07-13T07:27:33;6.90;;;3.40;;
68951;SDS011;56000;51.146;17.112;2023-07-13T07:30:11;8.90;;;4.00;;
68951;SDS011;56000;51.146;17.112;2023-07-13T07:32:48;9.90;;;4.00;;
68951;SDS011;56000;51.146;17.112;2023-07-13T07:35:24;9.80;;;3.70;;
68951;SDS011;56000;51.146;17.112;2023-07-13T07:38:02;5.10;;;3.90;;
68951;SDS011;56000;51.146;17.112;2023-07-13T07:40:38;6.70;;;4.00;;
68951;SDS011;56000;51.146;17.112;2023-07-13T07:43:15;8.00;;;3.80;;
68951;SDS011;56000;51.146;17.112;2023-07-13T07:45:48;10.40;;;4.80;;
68951;SDS011;56000;51.146;17.112;2023-07-13T07:48:21;7.60;;;3.90;;
68951;SDS011;56000;51.146;17.112;2023-07-13T07:50:54;5.20;;;3.40;;
68951;SDS011;56000;51.146;17.112;2023-07-13T07:53:28;9.90;;;3.70;;
68951;SDS011;56000;51.146;17.112;2023-07-13T07:56:03;9.70;;;4.20;;
68951;SDS011;56000;51.146;17.112;2023-07-13T07:58:56;7.50;;;4.30;;
68951;SDS011;56000;51.146;17.112;2023-07-13T08:01:32;7.90;;;3.40;;
68951;SDS011;56000;51.146;17.112;2023-07-13T08:04:09;6.60;;;3.80;;
68951;SDS011;56000;51.146;17.112;2023-07-13T08:07:02;6.40;;;3.70;;
68951;SDS011;56000;51.146;17.112;2023-07-13T08:09:36;6.80;;;3.70;;
68951;SDS011;56000;51.146;17.112;2023-07-13T08:12:10;8.70;;;3.60;;
68951;SDS011;56000;51.146;17.112;2023-07-13T08:14:46;8.40;;;3.70;;
68951;SDS011;56000;51.146;17.112;2023-07-13T08:17:23;10.10;;;3.90;;
68951;SDS011;56000;51.146;17.112;2023-07-13T08:19:56;7.30;;;3.70;;
68951;SDS011;56000;51.146;17.112;2023-07-13T08:22:30;8.60;;;4.00;;
68951;SDS011;56000;51.146;17.112;2023-07-13T08:25:04;4.00;;;3.30;;
68951;SDS011;56000;51.146;17.112;2023-07-13T08:27:37;9.20;;;3.70;;
68951;SDS011;56000;51.146;17.112;2023-07-13T08:30:11;6.40;;;3.80;;
68951;SDS011;56000;51.146;17.112;2023-07-13T08:32:45;6.10;;;3.40;;
68951;SDS011;56000;51.146;17.112;2023-07-13T08:35:18;10.00;;;3.50;;
68951;SDS011;56000;51.146;17.112;2023-07-13T08:37:51;6.50;;;3.20;;
68951;SDS011;56000;51.146;17.112;2023-07-13T08:40:25;8.80;;;3.60;;
68951;SDS011;56000;51.146;17.112;2023-07-13T08:43:00;6.70;;;3.70;;
68951;SDS011;56000;51.146;17.112;2023-07-13T08:45:37;4.80;;;3.50;;
68951;SDS011;56000;51.146;17.112;2023-07-13T08:48:17;7.30;;;3.50;;
68951;SDS011;56000;51.146;17.112;2023-07-13T08:50:54;4.80;;;3.90;;
68951;SDS011;56000;51.146;17.112;2023-07-13T08:53:34;7.30;;;4.30;;
68951;SDS011;56000;51.146;17.112;2023-07-13T08:56:16;6.20;;;4.00;;
68951;SDS011;56000;51.146;17.112;2023-07-13T08:58:54;6.20;;;3.50;;
68951;SDS011;56000;51.146;17.112;2023-07-13T09:01:33;7.90;;;3.90;;
68951;SDS011;56000;51.146;17.112;2023-07-13T09:04:23;12.80;;;4.10;;
68951;SDS011;56000;51.146;17.112;2023-07-13T09:07:04;7.80;;;3.50;;
68951;SDS011;56000;51.146;17.112;2023-07-13T09:10:05;7.50;;;4.30;;
68951;SDS011;56000;51.146;17.112;2023-07-13T09:12:54;7.70;;;3.50;;
68951;SDS011;56000;51.146;17.112;2023-07-13T09:15:38;4.20;;;3.00;;
68951;SDS011;56000;51.146;17.112;2023-07-13T09:18:16;7.10;;;3.50;;
68951;SDS011;56000;51.146;17.112;2023-07-13T09:20:57;7.80;;;3.60;;
68951;SDS011;56000;51.146;17.112;2023-07-13T09:23:36;7.20;;;3.60;;
68951;SDS011;56000;51.146;17.112;2023-07-13T09:26:16;5.10;;;2.70;;
68951;SDS011;56000;51.146;17.112;2023-07-13T09:28:53;5.60;;;3.00;;
68951;SDS011;56000;51.146;17.112;2023-07-13T09:31:30;8.30;;;3.40;;
68951;SDS011;56000;51.146;17.112;2023-07-13T09:34:09;4.70;;;2.60;;
68951;SDS011;56000;51.146;17.112;2023-07-13T09:36:43;6.50;;;2.80;;
68951;SDS011;56000;51.146;17.112;2023-07-13T09:39:18;6.70;;;3.10;;
68951;SDS011;56000;51.146;17.112;2023-07-13T09:42:00;6.70;;;3.40;;
68951;SDS011;56000;51.146;17.112;2023-07-13T09:44:39;4.70;;;3.10;;
68951;SDS011;56000;51.146;17.112;2023-07-13T09:47:23;10.20;;;5.50;;
68951;SDS011;56000;51.146;17.112;2023-07-13T09:50:00;4.50;;;3.10;;
68951;SDS011;56000;51.146;17.112;2023-07-13T09:52:43;6.70;;;3.40;;
68951;SDS011;56000;51.146;17.112;2023-07-13T09:55:26;3.60;;;2.60;;
68951;SDS011;56000;51.146;17.112;2023-07-13T09:58:11;6.60;;;3.20;;
68951;SDS011;56000;51.146;17.112;2023-07-13T10:00:54;4.10;;;3.00;;
68951;SDS011;56000;51.146;17.112;2023-07-13T10:03:29;7.30;;;3.20;;
68951;SDS011;56000;51.146;17.112;2023-07-13T10:06:13;4.80;;;2.80;;
68951;SDS011;56000;51.146;17.112;2023-07-13T10:08:48;3.70;;;2.20;;
68951;SDS011;56000;51.146;17.112;2023-07-13T10:11:24;4.50;;;2.40;;
68951;SDS011;56000;51.146;17.112;2023-07-13T10:14:01;4.80;;;3.30;;
68951;SDS011;56000;51.146;17.112;2023-07-13T10:16:42;5.10;;;3.10;;
68951;SDS011;56000;51.146;17.112;2023-07-13T10:19:20;5.20;;;2.60;;
68951;SDS011;56000;51.146;17.112;2023-07-13T10:21:58;6.30;;;3.10;;
68951;SDS011;56000;51.146;17.112;2023-07-13T10:24:35;7.30;;;2.70;;
68951;SDS011;56000;51.146;17.112;2023-07-13T10:27:15;4.20;;;2.20;;
68951;SDS011;56000;51.146;17.112;2023-07-13T10:29:54;8.20;;;2.30;;
68951;SDS011;56000;51.146;17.112;2023-07-13T10:32:33;5.40;;;2.20;;
68951;SDS011;56000;51.146;17.112;2023-07-13T10:35:10;3.70;;;2.30;;
68951;SDS011;56000;51.146;17.112;2023-07-13T10:37:47;4.90;;;2.10;;
68951;SDS011;56000;51.146;17.112;2023-07-13T10:40:27;3.80;;;2.10;;
68951;SDS011;56000;51.146;17.112;2023-07-13T10:43:06;6.50;;;2.00;;
68951;SDS011;56000;51.146;17.112;2023-07-13T10:45:45;2.40;;;1.60;;
68951;SDS011;56000;51.146;17.112;2023-07-13T10:48:20;6.30;;;2.10;;
68951;SDS011;56000;51.146;17.112;2023-07-13T10:50:54;4.10;;;1.70;;
68951;SDS011;56000;51.146;17.112;2023-07-13T10:53:32;6.80;;;1.80;;
68951;SDS011;56000;51.146;17.112;2023-07-13T10:56:15;4.80;;;2.10;;
68951;SDS011;56000;51.146;17.112;2023-07-13T10:59:09;2.50;;;2.00;;
68951;SDS011;56000;51.146;17.112;2023-07-13T11:01:54;3.00;;;1.70;;
68951;SDS011;56000;51.146;17.112;2023-07-13T11:04:38;6.80;;;2.00;;
68951;SDS011;56000;51.146;17.112;2023-07-13T11:07:21;3.50;;;1.90;;
68951;SDS011;56000;51.146;17.112;2023-07-13T11:09:57;5.80;;;1.80;;
68951;SDS011;56000;51.146;17.112;2023-07-13T11:12:53;2.70;;;1.80;;
68951;SDS011;56000;51.146;17.112;2023-07-13T11:15:42;3.60;;;1.70;;
68951;SDS011;56000;51.146;17.112;2023-07-13T11:18:24;3.00;;;1.90;;
68951;SDS011;56000;51.146;17.112;2023-07-13T11:21:15;6.90;;;1.80;;
68951;SDS011;56000;51.146;17.112;2023-07-13T11:24:14;5.20;;;1.70;;
68951;SDS011;56000;51.146;17.112;2023-07-13T11:26:53;3.90;;;1.60;;
68951;SDS011;56000;51.146;17.112;2023-07-13T11:29:37;3.90;;;1.60;;
68951;SDS011;56000;51.146;17.112;2023-07-13T11:32:24;2.60;;;1.90;;
68951;SDS011;56000;51.146;17.112;2023-07-13T11:35:02;3.00;;;1.70;;
68951;SDS011;56000;51.146;17.112;2023-07-13T11:37:36;3.70;;;1.80;;
68951;SDS011;56000;51.146;17.112;2023-07-13T11:40:15;3.60;;;1.70;;
68951;SDS011;56000;51.146;17.112;2023-07-13T11:42:49;4.30;;;2.10;;
68951;SDS011;56000;51.146;17.112;2023-07-13T11:45:23;2.60;;;1.90;;
68951;SDS011;56000;51.146;17.112;2023-07-13T11:48:26;3.90;;;2.00;;
68951;SDS011;56000;51.146;17.112;2023-07-13T11:51:02;4.40;;;2.20;;
68951;SDS011;56000;51.146;17.112;2023-07-13T11:53:46;4.40;;;1.90;;
68951;SDS011;56000;51.146;17.112;2023-07-13T11:56:23;3.00;;;1.90;;
68951;SDS011;56000;51.146;17.112;2023-07-13T11:59:02;3.60;;;2.30;;
68951;SDS011;56000;51.146;17.112;2023-07-13T12:01:41;3.20;;;1.80;;
68951;SDS011;56000;51.146;17.112;2023-07-13T12:04:22;5.80;;;2.10;;
68951;SDS011;56000;51.146;17.112;2023-07-13T12:07:03;3.30;;;1.90;;
68951;SDS011;56000;51.146;17.112;2023-07-13T12:12:14;4.80;;;1.90;;
68951;SDS011;56000;51.146;17.112;2023-07-13T12:14:53;2.40;;;2.00;;
68951;SDS011;56000;51.146;17.112;2023-07-13T12:17:26;3.10;;;1.90;;
68951;SDS011;56000;51.146;17.112;2023-07-13T12:20:03;4.90;;;1.90;;
68951;SDS011;56000;51.146;17.112;2023-07-13T12:22:49;6.10;;;1.80;;
68951;SDS011;56000;51.146;17.112;2023-07-13T12:25:24;4.30;;;1.90;;
68951;SDS011;56000;51.146;17.112;2023-07-13T12:27:58;3.90;;;2.00;;
68951;SDS011;56000;51.146;17.112;2023-07-13T12:30:51;2.40;;;1.60;;
68951;SDS011;56000;51.146;17.112;2023-07-13T12:33:32;2.70;;;1.70;;
68951;SDS011;56000;51.146;17.112;2023-07-13T12:36:08;2.90;;;1.50;;
68951;SDS011;56000;51.146;17.112;2023-07-13T12:38:46;6.60;;;1.60;;
68951;SDS011;56000;51.146;17.112;2023-07-13T12:41:19;4.50;;;1.70;;
68951;SDS011;56000;51.146;17.112;2023-07-13T12:43:53;5.20;;;1.40;;
68951;SDS011;56000;51.146;17.112;2023-07-13T12:46:26;3.50;;;1.50;;
68951;SDS011;56000;51.146;17.112;2023-07-13T12:49:00;5.30;;;1.60;;
68951;SDS011;56000;51.146;17.112;2023-07-13T12:51:49;6.80;;;2.10;;
68951;SDS011;56000;51.146;17.112;2023-07-13T12:54:28;3.90;;;1.90;;
68951;SDS011;56000;51.146;17.112;2023-07-13T12:57:02;6.60;;;1.80;;
68951;SDS011;56000;51.146;17.112;2023-07-13T12:59:41;6.60;;;1.90;;
68951;SDS011;56000;51.146;17.112;2023-07-13T13:02:29;2.00;;;1.60;;
68951;SDS011;56000;51.146;17.112;2023-07-13T13:05:06;5.20;;;1.80;;
68951;SDS011;56000;51.146;17.112;2023-07-13T13:07:44;3.10;;;1.60;;
68951;SDS011;56000;51.146;17.112;2023-07-13T13:10:17;2.10;;;1.50;;
68951;SDS011;56000;51.146;17.112;2023-07-13T13:12:51;2.40;;;1.40;;
68951;SDS011;56000;51.146;17.112;2023-07-13T13:15:25;11.50;;;1.70;;
68951;SDS011;56000;51.146;17.112;2023-07-13T13:17:58;2.20;;;1.40;;
68951;SDS011;56000;51.146;17.112;2023-07-13T13:20:31;2.90;;;1.60;;
68951;SDS011;56000;51.146;17.112;2023-07-13T13:23:07;3.30;;;1.50;;
68951;SDS011;56000;51.146;17.112;2023-07-13T13:25:43;3.30;;;1.80;;
68951;SDS011;56000;51.146;17.112;2023-07-13T13:28:18;3.90;;;1.70;;
68951;SDS011;56000;51.146;17.112;2023-07-13T13:30:52;4.70;;;1.60;;
68951;SDS011;56000;51.146;17.112;2023-07-13T13:33:29;3.90;;;1.50;;
68951;SDS011;56000;51.146;17.112;2023-07-13T13:36:03;2.60;;;1.50;;
68951;SDS011;56000;51.146;17.112;2023-07-13T13:38:36;6.50;;;1.70;;
68951;SDS011;56000;51.146;17.112;2023-07-13T13:41:11;7.70;;;1.70;;
68951;SDS011;56000;51.146;17.112;2023-07-13T13:43:45;4.00;;;1.70;;
68951;SDS011;56000;51.146;17.112;2023-07-13T13:46:20;3.30;;;1.70;;
68951;SDS011;56000;51.146;17.112;2023-07-13T13:48:59;4.10;;;1.70;;
68951;SDS011;56000;51.146;17.112;2023-07-13T13:51:33;6.20;;;1.70;;
68951;SDS011;56000;51.146;17.112;2023-07-13T13:54:08;3.20;;;1.50;;
68951;SDS011;56000;51.146;17.112;2023-07-13T13:56:45;2.90;;;1.80;;
68951;SDS011;56000;51.146;17.112;2023-07-13T13:59:20;2.80;;;1.60;;
68951;SDS011;56000;51.146;17.112;2023-07-13T14:01:53;3.00;;;1.60;;
68951;SDS011;56000;51.146;17.112;2023-07-13T14:04:30;2.40;;;1.40;;
68951;SDS011;56000;51.146;17.112;2023-07-13T14:07:03;3.80;;;1.80;;
68951;SDS011;56000;51.146;17.112;2023-07-13T14:09:36;3.00;;;1.70;;
68951;SDS011;56000;51.146;17.112;2023-07-13T14:12:10;2.00;;;1.40;;
68951;SDS011;56000;51.146;17.112;2023-07-13T14:14:43;3.70;;;1.90;;
68951;SDS011;56000;51.146;17.112;2023-07-13T14:17:22;11.00;;;7.50;;
68951;SDS011;56000;51.146;17.112;2023-07-13T14:19:57;2.70;;;1.60;;
68951;SDS011;56000;51.146;17.112;2023-07-13T14:22:30;5.50;;;1.60;;
68951;SDS011;56000;51.146;17.112;2023-07-13T14:25:04;2.60;;;1.60;;
68951;SDS011;56000;51.146;17.112;2023-07-13T14:27:39;4.40;;;1.60;;
68951;SDS011;56000;51.146;17.112;2023-07-13T14:30:15;4.80;;;1.60;;
68951;SDS011;56000;51.146;17.112;2023-07-13T14:32:50;1.40;;;1.30;;
68951;SDS011;56000;51.146;17.112;2023-07-13T14:35:24;2.20;;;1.70;;
68951;SDS011;56000;51.146;17.112;2023-07-13T14:37:57;2.30;;;1.50;;
68951;SDS011;56000;51.146;17.112;2023-07-13T14:40:32;4.90;;;1.50;;
68951;SDS011;56000;51.146;17.112;2023-07-13T14:43:07;5.60;;;1.30;;
68951;SDS011;56000;51.146;17.112;2023-07-13T14:45:47;2.20;;;1.50;;
68951;SDS011;56000;51.146;17.112;2023-07-13T14:48:22;2.00;;;1.30;;
68951;SDS011;56000;51.146;17.112;2023-07-13T14:50:57;1.50;;;1.30;;
68951;SDS011;56000;51.146;17.112;2023-07-13T14:53:31;2.40;;;1.40;;
68951;SDS011;56000;51.146;17.112;2023-07-13T14:56:11;2.30;;;1.60;;
68951;SDS011;56000;51.146;17.112;2023-07-13T15:01:17;4.40;;;1.50;;
68951;SDS011;56000;51.146;17.112;2023-07-13T15:03:52;6.30;;;1.60;;
68951;SDS011;56000;51.146;17.112;2023-07-13T15:06:26;3.60;;;1.60;;
68951;SDS011;56000;51.146;17.112;2023-07-13T15:08:59;4.30;;;1.60;;
68951;SDS011;56000;51.146;17.112;2023-07-13T15:11:34;2.40;;;1.60;;
68951;SDS011;56000;51.146;17.112;2023-07-13T15:14:07;4.20;;;2.00;;
68951;SDS011;56000;51.146;17.112;2023-07-13T15:16:40;3.40;;;1.70;;
68951;SDS011;56000;51.146;17.112;2023-07-13T15:19:13;4.20;;;1.60;;
68951;SDS011;56000;51.146;17.112;2023-07-13T15:21:47;1.90;;;1.50;;
68951;SDS011;56000;51.146;17.112;2023-07-13T15:24:22;5.20;;;2.00;;
68951;SDS011;56000;51.146;17.112;2023-07-13T15:26:55;3.50;;;1.80;;
68951;SDS011;56000;51.146;17.112;2023-07-13T15:29:28;4.20;;;1.50;;
68951;SDS011;56000;51.146;17.112;2023-07-13T15:32:01;4.20;;;1.80;;